Schillplate — ZDJJ8 — position and weather

sailwx.info

Track history (hours):
 
Tides and Currents Weather Stations Pressure Air Temp Water Temp Dewpoint Dewpoint Depression Visibility Wind Speed Wind Dir Waves Ship Positions

Schillplate

Last reported at 2016-Aug-28 05:29 UTC. Time now 2016-Aug-31 21:52 UTC.
Position N 43°38' W 006°02'.

Length 86 m; draft 4.1 m.

Type: Cargo ship. MMSI: 236111603.

Date/timePositionNaut miles runAvg speedWind from/ knotsBaromVisibWave heightAir tempDewpointWater temp
2016-Aug-28 05:29N 43°38' W 006°02'7 6.8
2016-Aug-28 04:25N 43°40' W 006°12'  
2016-Aug-24 22:13N 41°12' W 009°10'15 8.3
2016-Aug-24 20:26N 41°25' W 009°20'8 8.6
2016-Aug-24 19:27N 41°33' W 009°25'8 8.3
2016-Aug-24 18:32N 41°40' W 009°29'13 9.3
2016-Aug-24 17:09N 41°51' W 009°37'10 9.9
2016-Aug-24 16:08N 42°00' W 009°43'6 9.4
2016-Aug-24 15:33N 42°05' W 009°47'131 7.5
2016-Aug-23 22:03N 43°52' W 008°04'710.1
2016-Aug-23 21:21N 43°53' W 007°54'910.5
2016-Aug-23 20:32N 43°53' W 007°43'1010.4
2016-Aug-23 19:33N 43°51' W 007°29'1210.2
2016-Aug-23 18:23N 43°49' W 007°13'49 9.9
2016-Aug-23 13:27N 43°39' W 006°06'  
2016-Aug-19 02:33N 49°51' W 003°38'1212.4
2016-Aug-19 01:33N 49°54' W 003°19'1312.6
2016-Aug-19 00:33N 49°57' W 002°60'1212.3
2016-Aug-18 23:33N 50°00' W 002°41'1210.8
2016-Aug-18 22:27N 50°03' W 002°23'24 7.6
2016-Aug-18 19:22N 50°03' W 001°47'6 7.3
2016-Aug-18 18:33N 50°01' W 001°38'9 8.9
2016-Aug-18 17:31N 49°56' W 001°26'1010.6
2016-Aug-18 16:32N 49°51' W 001°12'1212.6
2016-Aug-18 15:33N 49°45' W 000°55'1413.7
2016-Aug-18 14:33N 49°39' W 000°36'1312.7
2016-Aug-18 13:33N 49°33' W 000°19'7 7.1
2016-Aug-18 12:32N 49°29' W 000°10'1 0.7
2016-Aug-18 11:34N 49°29' W 000°09'10 9.6
2016-Aug-18 10:34N 49°26' E 000°05'6 6.1
2016-Aug-18 09:33N 49°26' E 000°15'0 0.0
2016-Aug-18 08:33N 49°26' E 000°15'0 0.0
2016-Aug-18 07:33N 49°26' E 000°15'0 0.0
2016-Aug-18 06:33N 49°26' E 000°15'0 0.0
2016-Aug-18 05:33N 49°26' E 000°15'  
Track history (hours):
 
Tides and Currents Weather Stations Pressure Air Temp Water Temp Dewpoint Dewpoint Depression Visibility Wind Speed Wind Dir Waves Ship Positions

Schillplate

Last reported at 2016-Aug-28 05:29 UTC. Time now 2016-Aug-31 21:52 UTC.
Position N 43°38' W 006°02'.

Length 86 m; draft 4.1 m.

Type: Cargo ship. MMSI: 236111603.

Date/timePositionNaut miles runAvg speedWind from/ knotsBaromVisibWave heightAir tempDewpointWater temp
2016-Aug-28 05:29N 43°38' W 006°02'7 6.8
2016-Aug-28 04:25N 43°40' W 006°12'  
2016-Aug-24 22:13N 41°12' W 009°10'15 8.3
2016-Aug-24 20:26N 41°25' W 009°20'8 8.6
2016-Aug-24 19:27N 41°33' W 009°25'8 8.3
2016-Aug-24 18:32N 41°40' W 009°29'13 9.3
2016-Aug-24 17:09N 41°51' W 009°37'10 9.9
2016-Aug-24 16:08N 42°00' W 009°43'6 9.4
2016-Aug-24 15:33N 42°05' W 009°47'131 7.5
2016-Aug-23 22:03N 43°52' W 008°04'710.1
2016-Aug-23 21:21N 43°53' W 007°54'910.5
2016-Aug-23 20:32N 43°53' W 007°43'1010.4
2016-Aug-23 19:33N 43°51' W 007°29'1210.2
2016-Aug-23 18:23N 43°49' W 007°13'49 9.9
2016-Aug-23 13:27N 43°39' W 006°06'  
2016-Aug-19 02:33N 49°51' W 003°38'1212.4
2016-Aug-19 01:33N 49°54' W 003°19'1312.6
2016-Aug-19 00:33N 49°57' W 002°60'1212.3
2016-Aug-18 23:33N 50°00' W 002°41'1210.8
2016-Aug-18 22:27N 50°03' W 002°23'24 7.6
2016-Aug-18 19:22N 50°03' W 001°47'6 7.3
2016-Aug-18 18:33N 50°01' W 001°38'9 8.9
2016-Aug-18 17:31N 49°56' W 001°26'1010.6
2016-Aug-18 16:32N 49°51' W 001°12'1212.6
2016-Aug-18 15:33N 49°45' W 000°55'1413.7
2016-Aug-18 14:33N 49°39' W 000°36'1312.7
2016-Aug-18 13:33N 49°33' W 000°19'7 7.1
2016-Aug-18 12:32N 49°29' W 000°10'1 0.7
2016-Aug-18 11:34N 49°29' W 000°09'10 9.6
2016-Aug-18 10:34N 49°26' E 000°05'6 6.1
2016-Aug-18 09:33N 49°26' E 000°15'0 0.0
2016-Aug-18 08:33N 49°26' E 000°15'0 0.0
2016-Aug-18 07:33N 49°26' E 000°15'0 0.0
2016-Aug-18 06:33N 49°26' E 000°15'0 0.0
2016-Aug-18 05:33N 49°26' E 000°15'  

Dump ship's entire track history